ADDS METAR Data INFO
IDs: Format: Raw Decoded Include TAF

Data at: 0559 UTC 25 Jun 2018

KCXO 250553Z AUTO 17010KT 10SM FEW024 26/24 A2996 RMK AO2 SLP141 60000 T02610244 10311 20256 403500256 51013
KCXO 250546Z AUTO 16010KT 10SM FEW024 26/24 A2996 RMK AO2 T02610244
KCXO 250521Z AUTO 13004KT 10SM BKN024 26/25 A2996 RMK AO2 T02560250
KCXO 250453Z AUTO 12004KT 10SM CLR 26/25 A2995 RMK AO2 RAE28 SLP139 P0000 T02560250
KCXO 250353Z AUTO 13006KT 10SM -RA CLR 27/24 A2994 RMK AO2 SLP133 P0000 T02670244
KCXO 250253Z AUTO 14008KT 10SM -RA CLR 27/25 A2992 RMK AO2 SLP128 P0000 60000 T02720250 51010
KCXO 250153Z AUTO 14008KT 10SM -RA CLR 28/24 A2991 RMK AO2 RAB0057 SLP125 P0000 T02830239
KCXO 250053Z 15010KT 10SM CLR 31/24 A2991 RMK AO2 SLP122 T03060244
KCXO 242353Z 14013KT 10SM FEW037 32/25 A2989 RMK AO2 RAE10B27E51 SLP118 P0000 60000 T03170250 10350 20317 56004
KCXO 242253Z 16013KT 10SM -RA CLR 33/24 A2989 RMK AO2 RAB48 SLP118 P0000 T03280239
KCXO 242153Z 15019G25KT 10SM FEW048 34/23 A2989 RMK AO2 SLP118 T03390228
KCXO 242053Z 17015G20KT 10SM SCT046 SCT060 35/24 A2990 RMK AO2 SLP122 60000 T03500239 58008
KCXO 241953Z 15015KT 10SM SCT045 SCT055 SCT075 34/24 A2991 RMK AO2 RAB27E37 SLP125 P0000 T03390244
KCXO 241853Z 19014KT 10SM SCT049 SCT060 34/23 A2992 RMK AO2 RAB23E38 SLP128 P0000 T03440233
KCXO 241753Z 17012G20KT 10SM SCT041 BKN055 33/24 A2993 RMK AO2 SLP130 60000 T03330244 10333 20256 51004
KCXO 241653Z 18012G19KT 10SM SCT037 32/24 A2993 RMK AO2 RAE14B37E47 SLP130 P0000 T03220239
KCXO 241553Z 16014KT 10SM -RA SCT032 SCT039 31/24 A2992 RMK AO2 RAB17E27B52 SLP126 P0000 T03110244
KCXO 241453Z 19014KT 10SM FEW020 SCT025 BKN032 30/25 A2992 RMK AO2 RAB31E36 SLP126 P0000 60000 T03000250 50009
KCXO 241426Z 18008KT 10SM SCT022 BKN030 BKN037 29/26 A2992 RMK AO2 T02890261
KCXO 241353Z 17010KT 10SM BKN018 OVC025 28/26 A2992 RMK AO2 RAB03E26 SLP127 P0000 T02830261
KCXO 241253Z 17009KT 10SM BKN014 BKN019 OVC025 27/26 A2989 RMK AO2 SLP117 T02670256
KCXO 241225Z 18010KT 10SM BKN023 26/26 A2988 RMK AO2 T02610256
KCXO 241153Z 16010KT 10SM CLR 26/26 A2987 RMK AO2 RAB27E35 SLP111 P0000 60000 T02560256 10267 20256 56012
KCXO 241135Z 17008KT 10SM FEW015 26/26 A2988 RMK AO2 RAB27E35 P0000 T02560256
KCXO 241053Z 16009KT 10SM BKN017 BKN024 26/26 A2988 RMK AO2 RAE02 SLP115 P0000 T02610256
KCXO 240953Z AUTO 19005KT 10SM -RA BKN018 26/26 A2989 RMK AO2 SLP118 P0000 T02610256
KCXO 240853Z AUTO 21007KT 10SM -RA BKN019 OVC024 27/25 A2991 RMK AO2 RAB17E30B33 SLP123 P0000 60000 T02670250 50002
KCXO 240753Z AUTO 18005KT 10SM BKN022 OVC027 27/25 A2991 RMK AO2 RAB12E30 SLP125 P0000 T02670250
KCXO 240722Z AUTO 17008KT 10SM -RA SCT024 BKN028 BKN033 27/25 A2991 RMK AO2 RAB12 P0000 T02670250
KCXO 240653Z AUTO 17010KT 10SM FEW025 BKN033 27/26 A2990 RMK AO2 RAB10E19B39E51 SLP120 P0000 T02670256
KCXO 240553Z AUTO 18008KT 10SM FEW019 27/26 A2990 RMK AO2 RAE0455B39E48 SLP120 P0000 60000 T02670256 10322 20267 403440239 53020
KCXO 240521Z AUTO 17006KT 10SM SCT021 27/26 A2989 RMK AO2 RAE0455 P0000 T02670256
KCXO 240502Z AUTO 17008KT 10SM BKN021 27/26 A2988 RMK AO2 RAE0455 P0000 T02670256
KCXO 240453Z AUTO 17009KT 10SM -RA SCT021 27/26 A2988 RMK AO2 RAB46 SLP112 P0000 T02670256
KCXO 240353Z AUTO 16011KT 10SM CLR 27/25 A2985 RMK AO2 RAB18E50 SLP104 P0000 T02720250
KCXO 240253Z AUTO 15008KT 10SM CLR 27/25 A2984 RMK AO2 SLP100 T02720250 53013
KCXO 240153Z AUTO 15014G22KT 10SM CLR 29/24 A2982 RMK AO2 SLP095 T02890244
KCXO 240053Z 15016KT 10SM CLR 30/24 A2981 RMK AO2 SLP091 T03000244
KCXO 232353Z 17013KT 10SM CLR 32/25 A2980 RMK AO2 SLP087 T03220250 10344 20311 56012
KCXO 232253Z 17014KT 10SM FEW043 FEW055 33/24 A2980 RMK AO2 SLP088 T03330244
KCXO 232153Z 18014KT 10SM FEW048 34/24 A2982 RMK AO2 SLP093 T03440239
KCXO 232053Z 14010KT 10SM SCT050 BKN065 33/24 A2983 RMK AO2 SLP098 T03330239 56022
KCXO 231953Z 15011KT 10SM FEW042 SCT065 34/24 A2985 RMK AO2 SLP104 T03440244
KCXO 231853Z 18006KT 10SM FEW049 SCT065 33/23 A2988 RMK AO2 SLP112 T03280233